sensor_id;sensor_type;location;lat;lon;timestamp;temperature;humidity
18506;DHT22;9382;53.242;10.438;2023-04-03T00:00:26;-0.60;99.90
18506;DHT22;9382;53.242;10.438;2023-04-03T00:02:54;-0.60;99.90
18506;DHT22;9382;53.242;10.438;2023-04-03T00:05:21;-0.70;99.90
18506;DHT22;9382;53.242;10.438;2023-04-03T00:07:47;-0.70;99.90
18506;DHT22;9382;53.242;10.438;2023-04-03T00:10:15;-0.70;99.90
18506;DHT22;9382;53.242;10.438;2023-04-03T00:12:42;-0.70;99.90
18506;DHT22;9382;53.242;10.438;2023-04-03T00:15:09;-0.70;99.90
18506;DHT22;9382;53.242;10.438;2023-04-03T00:17:36;-0.70;99.90
18506;DHT22;9382;53.242;10.438;2023-04-03T00:20:05;-0.70;99.90
18506;DHT22;9382;53.242;10.438;2023-04-03T00:22:32;-0.70;99.90
18506;DHT22;9382;53.242;10.438;2023-04-03T00:24:58;-0.70;99.90
18506;DHT22;9382;53.242;10.438;2023-04-03T00:27:25;-0.70;99.90
18506;DHT22;9382;53.242;10.438;2023-04-03T00:29:52;-0.70;99.90
18506;DHT22;9382;53.242;10.438;2023-04-03T00:32:19;-0.70;99.90
18506;DHT22;9382;53.242;10.438;2023-04-03T00:34:45;-0.70;99.90
18506;DHT22;9382;53.242;10.438;2023-04-03T00:37:13;-0.70;99.90
18506;DHT22;9382;53.242;10.438;2023-04-03T00:39:40;-0.70;99.90
18506;DHT22;9382;53.242;10.438;2023-04-03T00:42:07;-0.70;99.90
18506;DHT22;9382;53.242;10.438;2023-04-03T00:47:38;-0.70;99.90
18506;DHT22;9382;53.242;10.438;2023-04-03T00:50:07;-0.70;99.90
18506;DHT22;9382;53.242;10.438;2023-04-03T00:52:35;-0.70;99.90
18506;DHT22;9382;53.242;10.438;2023-04-03T00:55:06;-0.80;99.90
18506;DHT22;9382;53.242;10.438;2023-04-03T00:57:34;-0.70;99.90
18506;DHT22;9382;53.242;10.438;2023-04-03T01:00:05;-0.70;99.90
18506;DHT22;9382;53.242;10.438;2023-04-03T01:02:34;-0.70;99.90
18506;DHT22;9382;53.242;10.438;2023-04-03T01:05:01;-0.70;99.90
18506;DHT22;9382;53.242;10.438;2023-04-03T01:07:30;-0.70;99.90
18506;DHT22;9382;53.242;10.438;2023-04-03T01:10:02;-0.70;99.90
18506;DHT22;9382;53.242;10.438;2023-04-03T01:12:30;-0.80;99.90
18506;DHT22;9382;53.242;10.438;2023-04-03T01:14:59;-0.80;99.90
18506;DHT22;9382;53.242;10.438;2023-04-03T01:17:31;-0.80;99.90
18506;DHT22;9382;53.242;10.438;2023-04-03T01:20:27;-0.80;99.90
18506;DHT22;9382;53.242;10.438;2023-04-03T01:23:06;-0.80;99.90
18506;DHT22;9382;53.242;10.438;2023-04-03T01:25:40;-0.90;99.90
18506;DHT22;9382;53.242;10.438;2023-04-03T01:28:09;-0.80;99.90
18506;DHT22;9382;53.242;10.438;2023-04-03T01:30:40;-0.90;99.90
18506;DHT22;9382;53.242;10.438;2023-04-03T01:33:10;-0.90;99.90
18506;DHT22;9382;53.242;10.438;2023-04-03T01:35:37;-0.90;99.90
18506;DHT22;9382;53.242;10.438;2023-04-03T01:38:04;-0.90;99.90
18506;DHT22;9382;53.242;10.438;2023-04-03T01:40:31;-0.90;99.90
18506;DHT22;9382;53.242;10.438;2023-04-03T01:42:58;-0.90;99.90
18506;DHT22;9382;53.242;10.438;2023-04-03T01:45:24;-0.90;99.90
18506;DHT22;9382;53.242;10.438;2023-04-03T01:47:51;-0.90;99.90
18506;DHT22;9382;53.242;10.438;2023-04-03T01:50:20;-1.00;99.90
18506;DHT22;9382;53.242;10.438;2023-04-03T01:52:47;-1.00;99.90
18506;DHT22;9382;53.242;10.438;2023-04-03T01:55:14;-1.00;99.90
18506;DHT22;9382;53.242;10.438;2023-04-03T01:57:41;-1.00;99.90
18506;DHT22;9382;53.242;10.438;2023-04-03T02:00:09;-1.00;99.90
18506;DHT22;9382;53.242;10.438;2023-04-03T02:02:36;-1.00;99.90
18506;DHT22;9382;53.242;10.438;2023-04-03T02:05:03;-1.10;99.90
18506;DHT22;9382;53.242;10.438;2023-04-03T02:07:31;-1.10;99.90
18506;DHT22;9382;53.242;10.438;2023-04-03T02:09:57;-1.10;99.90
18506;DHT22;9382;53.242;10.438;2023-04-03T02:12:24;-1.10;99.90
18506;DHT22;9382;53.242;10.438;2023-04-03T02:14:51;-1.10;99.90
18506;DHT22;9382;53.242;10.438;2023-04-03T02:17:18;-1.10;99.90
18506;DHT22;9382;53.242;10.438;2023-04-03T02:19:44;-1.10;99.90
18506;DHT22;9382;53.242;10.438;2023-04-03T02:22:11;-1.20;99.90
18506;DHT22;9382;53.242;10.438;2023-04-03T02:24:39;-1.10;99.90
18506;DHT22;9382;53.242;10.438;2023-04-03T02:27:06;-1.20;99.90
18506;DHT22;9382;53.242;10.438;2023-04-03T02:29:33;-1.20;99.90
18506;DHT22;9382;53.242;10.438;2023-04-03T02:32:00;-1.20;99.90
18506;DHT22;9382;53.242;10.438;2023-04-03T02:34:27;-1.20;99.90
18506;DHT22;9382;53.242;10.438;2023-04-03T02:36:53;-1.20;99.90
18506;DHT22;9382;53.242;10.438;2023-04-03T02:39:20;-1.20;99.90
18506;DHT22;9382;53.242;10.438;2023-04-03T02:41:48;-1.20;99.90
18506;DHT22;9382;53.242;10.438;2023-04-03T02:44:15;-1.30;99.90
18506;DHT22;9382;53.242;10.438;2023-04-03T02:46:42;-1.30;99.90
18506;DHT22;9382;53.242;10.438;2023-04-03T02:49:08;-1.20;99.90
18506;DHT22;9382;53.242;10.438;2023-04-03T02:51:35;-1.20;99.90
18506;DHT22;9382;53.242;10.438;2023-04-03T02:54:02;-1.30;99.90
18506;DHT22;9382;53.242;10.438;2023-04-03T02:56:29;-1.30;99.90
18506;DHT22;9382;53.242;10.438;2023-04-03T02:58:57;-1.30;99.90
18506;DHT22;9382;53.242;10.438;2023-04-03T03:01:24;-1.30;99.90
18506;DHT22;9382;53.242;10.438;2023-04-03T03:03:53;-1.30;99.90
18506;DHT22;9382;53.242;10.438;2023-04-03T03:06:20;-1.30;99.90
18506;DHT22;9382;53.242;10.438;2023-04-03T03:08:47;-1.30;99.90
18506;DHT22;9382;53.242;10.438;2023-04-03T03:11:14;-1.30;99.90
18506;DHT22;9382;53.242;10.438;2023-04-03T03:13:40;-1.30;99.90
18506;DHT22;9382;53.242;10.438;2023-04-03T03:16:09;-1.30;99.90
18506;DHT22;9382;53.242;10.438;2023-04-03T03:18:36;-1.30;99.90
18506;DHT22;9382;53.242;10.438;2023-04-03T03:21:03;-1.30;99.90
18506;DHT22;9382;53.242;10.438;2023-04-03T03:23:31;-1.30;99.90
18506;DHT22;9382;53.242;10.438;2023-04-03T03:26:00;-1.30;99.90
18506;DHT22;9382;53.242;10.438;2023-04-03T03:28:27;-1.40;99.90
18506;DHT22;9382;53.242;10.438;2023-04-03T03:30:54;-1.40;99.90
18506;DHT22;9382;53.242;10.438;2023-04-03T03:33:22;-1.40;99.90
18506;DHT22;9382;53.242;10.438;2023-04-03T03:35:51;-1.40;99.90
18506;DHT22;9382;53.242;10.438;2023-04-03T03:38:17;-1.50;99.90
18506;DHT22;9382;53.242;10.438;2023-04-03T03:40:44;-1.50;99.90
18506;DHT22;9382;53.242;10.438;2023-04-03T03:43:11;-1.50;99.90
18506;DHT22;9382;53.242;10.438;2023-04-03T03:45:38;-1.40;99.90
18506;DHT22;9382;53.242;10.438;2023-04-03T03:48:05;-1.40;99.90
18506;DHT22;9382;53.242;10.438;2023-04-03T03:50:33;-1.50;99.90
18506;DHT22;9382;53.242;10.438;2023-04-03T03:53:00;-1.50;99.90
18506;DHT22;9382;53.242;10.438;2023-04-03T03:55:27;-1.50;99.90
18506;DHT22;9382;53.242;10.438;2023-04-03T03:57:53;-1.50;99.90
18506;DHT22;9382;53.242;10.438;2023-04-03T04:00:20;-1.50;99.90
18506;DHT22;9382;53.242;10.438;2023-04-03T04:02:47;-1.50;99.90
18506;DHT22;9382;53.242;10.438;2023-04-03T04:05:14;-1.50;99.90
18506;DHT22;9382;53.242;10.438;2023-04-03T04:07:42;-1.50;99.90
18506;DHT22;9382;53.242;10.438;2023-04-03T04:10:09;-1.50;99.90
18506;DHT22;9382;53.242;10.438;2023-04-03T04:12:36;-1.60;99.90
18506;DHT22;9382;53.242;10.438;2023-04-03T04:15:03;-1.60;99.90
18506;DHT22;9382;53.242;10.438;2023-04-03T04:17:30;-1.60;99.90
18506;DHT22;9382;53.242;10.438;2023-04-03T04:19:57;-1.60;99.90
18506;DHT22;9382;53.242;10.438;2023-04-03T04:22:24;-1.60;99.90
18506;DHT22;9382;53.242;10.438;2023-04-03T04:24:52;-1.60;99.90
18506;DHT22;9382;53.242;10.438;2023-04-03T04:27:18;-1.60;99.90
18506;DHT22;9382;53.242;10.438;2023-04-03T04:29:45;-1.60;99.90
18506;DHT22;9382;53.242;10.438;2023-04-03T04:32:12;-1.60;99.90
18506;DHT22;9382;53.242;10.438;2023-04-03T04:34:39;-1.60;99.90
18506;DHT22;9382;53.242;10.438;2023-04-03T04:37:05;-1.60;99.90
18506;DHT22;9382;53.242;10.438;2023-04-03T04:39:32;-1.60;99.90
18506;DHT22;9382;53.242;10.438;2023-04-03T04:42:01;-1.60;99.90
18506;DHT22;9382;53.242;10.438;2023-04-03T04:44:28;-1.60;99.90
18506;DHT22;9382;53.242;10.438;2023-04-03T04:46:54;-1.60;99.90
18506;DHT22;9382;53.242;10.438;2023-04-03T04:49:21;-1.60;99.90
18506;DHT22;9382;53.242;10.438;2023-04-03T04:51:48;-1.50;99.90
18506;DHT22;9382;53.242;10.438;2023-04-03T04:54:15;-1.60;99.90
18506;DHT22;9382;53.242;10.438;2023-04-03T04:56:41;-1.60;99.90
18506;DHT22;9382;53.242;10.438;2023-04-03T04:59:09;-1.50;99.90
18506;DHT22;9382;53.242;10.438;2023-04-03T05:01:36;-1.50;99.90
18506;DHT22;9382;53.242;10.438;2023-04-03T05:04:03;-1.50;99.90
18506;DHT22;9382;53.242;10.438;2023-04-03T05:06:30;-1.50;99.90
18506;DHT22;9382;53.242;10.438;2023-04-03T05:08:57;-1.50;99.90
18506;DHT22;9382;53.242;10.438;2023-04-03T05:11:24;-1.50;99.90
18506;DHT22;9382;53.242;10.438;2023-04-03T05:13:51;-1.50;99.90
18506;DHT22;9382;53.242;10.438;2023-04-03T05:16:19;-1.40;99.90
18506;DHT22;9382;53.242;10.438;2023-04-03T05:18:46;-1.40;99.90
18506;DHT22;9382;53.242;10.438;2023-04-03T05:21:12;-1.40;99.90
18506;DHT22;9382;53.242;10.438;2023-04-03T05:23:39;-1.40;99.90
18506;DHT22;9382;53.242;10.438;2023-04-03T05:26:06;-1.30;99.90
18506;DHT22;9382;53.242;10.438;2023-04-03T05:28:33;-1.30;99.90
18506;DHT22;9382;53.242;10.438;2023-04-03T05:30:59;-1.30;99.90
18506;DHT22;9382;53.242;10.438;2023-04-03T05:33:28;-1.20;99.90
18506;DHT22;9382;53.242;10.438;2023-04-03T05:35:54;-1.20;99.90
18506;DHT22;9382;53.242;10.438;2023-04-03T05:38:21;-1.20;99.90
18506;DHT22;9382;53.242;10.438;2023-04-03T05:40:48;-1.20;99.90
18506;DHT22;9382;53.242;10.438;2023-04-03T05:43:15;-1.20;99.90
18506;DHT22;9382;53.242;10.438;2023-04-03T05:45:42;-1.10;99.90
18506;DHT22;9382;53.242;10.438;2023-04-03T05:48:09;-1.10;99.90
18506;DHT22;9382;53.242;10.438;2023-04-03T05:50:37;-1.00;99.90
18506;DHT22;9382;53.242;10.438;2023-04-03T05:53:07;-1.00;99.90
18506;DHT22;9382;53.242;10.438;2023-04-03T05:55:40;-0.90;99.90
18506;DHT22;9382;53.242;10.438;2023-04-03T05:58:07;-0.70;99.90
18506;DHT22;9382;53.242;10.438;2023-04-03T06:00:33;-0.70;99.90
18506;DHT22;9382;53.242;10.438;2023-04-03T06:03:00;-0.70;99.90
18506;DHT22;9382;53.242;10.438;2023-04-03T06:05:27;-0.60;99.90
18506;DHT22;9382;53.242;10.438;2023-04-03T06:07:55;-0.50;99.90
18506;DHT22;9382;53.242;10.438;2023-04-03T06:10:22;-0.50;99.90
18506;DHT22;9382;53.242;10.438;2023-04-03T06:12:49;-0.40;99.90
18506;DHT22;9382;53.242;10.438;2023-04-03T06:15:16;-0.30;99.90
18506;DHT22;9382;53.242;10.438;2023-04-03T06:17:43;-0.20;99.90
18506;DHT22;9382;53.242;10.438;2023-04-03T06:20:11;-0.10;99.90
18506;DHT22;9382;53.242;10.438;2023-04-03T06:22:38;-0.10;99.90
18506;DHT22;9382;53.242;10.438;2023-04-03T06:25:09;0.00;99.90
18506;DHT22;9382;53.242;10.438;2023-04-03T06:27:36;0.10;99.90
18506;DHT22;9382;53.242;10.438;2023-04-03T06:30:04;0.20;99.90
18506;DHT22;9382;53.242;10.438;2023-04-03T06:32:31;0.40;99.90
18506;DHT22;9382;53.242;10.438;2023-04-03T06:34:58;0.50;99.90
18506;DHT22;9382;53.242;10.438;2023-04-03T06:37:25;0.60;99.90
18506;DHT22;9382;53.242;10.438;2023-04-03T06:39:54;0.80;99.90
18506;DHT22;9382;53.242;10.438;2023-04-03T06:42:23;0.90;99.90
18506;DHT22;9382;53.242;10.438;2023-04-03T06:44:49;1.10;99.90
18506;DHT22;9382;53.242;10.438;2023-04-03T06:47:17;1.30;99.90
18506;DHT22;9382;53.242;10.438;2023-04-03T06:49:44;1.40;99.90
18506;DHT22;9382;53.242;10.438;2023-04-03T06:52:11;1.60;99.90
18506;DHT22;9382;53.242;10.438;2023-04-03T06:54:38;1.80;99.90
18506;DHT22;9382;53.242;10.438;2023-04-03T06:57:05;2.00;99.90
18506;DHT22;9382;53.242;10.438;2023-04-03T06:59:34;2.20;99.90
18506;DHT22;9382;53.242;10.438;2023-04-03T07:02:00;2.40;99.90
18506;DHT22;9382;53.242;10.438;2023-04-03T07:04:27;2.60;99.90
18506;DHT22;9382;53.242;10.438;2023-04-03T07:06:54;2.70;99.90
18506;DHT22;9382;53.242;10.438;2023-04-03T07:09:21;2.90;99.90
18506;DHT22;9382;53.242;10.438;2023-04-03T07:11:47;3.10;99.90
18506;DHT22;9382;53.242;10.438;2023-04-03T07:14:14;3.20;99.90
18506;DHT22;9382;53.242;10.438;2023-04-03T07:16:42;3.40;99.90
18506;DHT22;9382;53.242;10.438;2023-04-03T07:19:09;3.60;99.90
18506;DHT22;9382;53.242;10.438;2023-04-03T07:21:37;3.70;99.90
18506;DHT22;9382;53.242;10.438;2023-04-03T07:24:04;3.90;99.90
18506;DHT22;9382;53.242;10.438;2023-04-03T07:26:31;4.00;99.90
18506;DHT22;9382;53.242;10.438;2023-04-03T07:28:57;4.20;99.90
18506;DHT22;9382;53.242;10.438;2023-04-03T07:31:25;4.30;99.90
18506;DHT22;9382;53.242;10.438;2023-04-03T07:33:53;4.40;99.90
18506;DHT22;9382;53.242;10.438;2023-04-03T07:36:21;4.60;99.90
18506;DHT22;9382;53.242;10.438;2023-04-03T07:38:48;4.70;99.90
18506;DHT22;9382;53.242;10.438;2023-04-03T07:41:17;5.00;99.90
18506;DHT22;9382;53.242;10.438;2023-04-03T07:43:45;5.20;99.90
18506;DHT22;9382;53.242;10.438;2023-04-03T07:46:15;5.30;99.90
18506;DHT22;9382;53.242;10.438;2023-04-03T07:48:42;5.50;99.90
18506;DHT22;9382;53.242;10.438;2023-04-03T07:51:10;5.60;99.90
18506;DHT22;9382;53.242;10.438;2023-04-03T07:53:38;5.70;99.90
18506;DHT22;9382;53.242;10.438;2023-04-03T07:56:05;5.80;99.90
18506;DHT22;9382;53.242;10.438;2023-04-03T07:58:32;5.80;99.90
18506;DHT22;9382;53.242;10.438;2023-04-03T08:00:59;6.00;99.90
18506;DHT22;9382;53.242;10.438;2023-04-03T08:03:26;6.00;99.90
18506;DHT22;9382;53.242;10.438;2023-04-03T08:05:53;6.00;99.90
18506;DHT22;9382;53.242;10.438;2023-04-03T08:08:22;6.10;99.90
18506;DHT22;9382;53.242;10.438;2023-04-03T08:10:49;6.20;99.90
18506;DHT22;9382;53.242;10.438;2023-04-03T08:13:16;6.30;99.90
18506;DHT22;9382;53.242;10.438;2023-04-03T08:15:43;6.50;99.90
18506;DHT22;9382;53.242;10.438;2023-04-03T08:18:10;6.50;99.90
18506;DHT22;9382;53.242;10.438;2023-04-03T08:20:38;6.70;99.90
18506;DHT22;9382;53.242;10.438;2023-04-03T08:23:05;6.90;99.90
18506;DHT22;9382;53.242;10.438;2023-04-03T08:25:33;6.90;99.90
18506;DHT22;9382;53.242;10.438;2023-04-03T08:28:00;7.00;99.90
18506;DHT22;9382;53.242;10.438;2023-04-03T08:30:27;7.10;99.90
18506;DHT22;9382;53.242;10.438;2023-04-03T08:32:54;7.20;99.90
18506;DHT22;9382;53.242;10.438;2023-04-03T08:35:20;7.40;99.90
18506;DHT22;9382;53.242;10.438;2023-04-03T08:37:47;7.60;99.90
18506;DHT22;9382;53.242;10.438;2023-04-03T08:40:15;7.50;99.90
18506;DHT22;9382;53.242;10.438;2023-04-03T08:42:51;7.60;99.90
18506;DHT22;9382;53.242;10.438;2023-04-03T08:45:25;7.80;99.90
18506;DHT22;9382;53.242;10.438;2023-04-03T08:47:59;7.90;99.90
18506;DHT22;9382;53.242;10.438;2023-04-03T08:50:31;7.90;99.90
18506;DHT22;9382;53.242;10.438;2023-04-03T08:53:01;8.00;99.90
18506;DHT22;9382;53.242;10.438;2023-04-03T08:55:33;8.20;99.90
18506;DHT22;9382;53.242;10.438;2023-04-03T08:58:04;8.30;99.90
18506;DHT22;9382;53.242;10.438;2023-04-03T09:00:37;8.40;99.90
18506;DHT22;9382;53.242;10.438;2023-04-03T09:03:12;8.50;99.90
18506;DHT22;9382;53.242;10.438;2023-04-03T09:05:43;8.80;99.90
18506;DHT22;9382;53.242;10.438;2023-04-03T09:08:22;8.90;99.90
18506;DHT22;9382;53.242;10.438;2023-04-03T09:10:49;8.90;99.90
18506;DHT22;9382;53.242;10.438;2023-04-03T09:13:26;8.80;99.90
18506;DHT22;9382;53.242;10.438;2023-04-03T09:15:56;8.70;99.90
18506;DHT22;9382;53.242;10.438;2023-04-03T09:18:28;8.90;99.90
18506;DHT22;9382;53.242;10.438;2023-04-03T09:21:04;9.20;99.90
18506;DHT22;9382;53.242;10.438;2023-04-03T09:23:42;9.10;99.90
18506;DHT22;9382;53.242;10.438;2023-04-03T09:26:15;9.10;99.90
18506;DHT22;9382;53.242;10.438;2023-04-03T09:28:46;9.30;99.90
18506;DHT22;9382;53.242;10.438;2023-04-03T09:31:20;9.30;99.90
18506;DHT22;9382;53.242;10.438;2023-04-03T09:33:49;9.30;99.90
18506;DHT22;9382;53.242;10.438;2023-04-03T09:36:38;9.20;99.90
18506;DHT22;9382;53.242;10.438;2023-04-03T09:39:06;9.10;99.90
18506;DHT22;9382;53.242;10.438;2023-04-03T09:41:35;9.10;99.90
18506;DHT22;9382;53.242;10.438;2023-04-03T09:44:22;9.40;99.90
18506;DHT22;9382;53.242;10.438;2023-04-03T09:46:49;9.60;99.90
18506;DHT22;9382;53.242;10.438;2023-04-03T09:49:17;9.80;99.90
18506;DHT22;9382;53.242;10.438;2023-04-03T09:51:45;9.90;99.90
18506;DHT22;9382;53.242;10.438;2023-04-03T09:54:39;10.20;99.90
18506;DHT22;9382;53.242;10.438;2023-04-03T09:57:09;10.40;99.90
18506;DHT22;9382;53.242;10.438;2023-04-03T09:59:43;10.30;99.90
18506;DHT22;9382;53.242;10.438;2023-04-03T10:05:37;10.50;99.90
18506;DHT22;9382;53.242;10.438;2023-04-03T10:08:10;10.80;99.90
18506;DHT22;9382;53.242;10.438;2023-04-03T10:10:37;11.10;99.90
18506;DHT22;9382;53.242;10.438;2023-04-03T10:13:07;11.40;99.90
18506;DHT22;9382;53.242;10.438;2023-04-03T10:15:40;11.30;99.90
18506;DHT22;9382;53.242;10.438;2023-04-03T10:18:18;11.10;99.90
18506;DHT22;9382;53.242;10.438;2023-04-03T10:20:51;11.30;99.90
18506;DHT22;9382;53.242;10.438;2023-04-03T10:23:22;11.50;99.90
18506;DHT22;9382;53.242;10.438;2023-04-03T10:25:59;11.60;99.90
18506;DHT22;9382;53.242;10.438;2023-04-03T10:28:33;11.60;99.90
18506;DHT22;9382;53.242;10.438;2023-04-03T10:31:09;11.80;99.90
18506;DHT22;9382;53.242;10.438;2023-04-03T10:33:48;11.50;99.90
18506;DHT22;9382;53.242;10.438;2023-04-03T10:36:23;11.20;99.90
18506;DHT22;9382;53.242;10.438;2023-04-03T10:38:59;10.90;99.90
18506;DHT22;9382;53.242;10.438;2023-04-03T10:41:38;10.50;99.90
18506;DHT22;9382;53.242;10.438;2023-04-03T10:44:15;10.80;99.90
18506;DHT22;9382;53.242;10.438;2023-04-03T10:46:48;11.50;99.90
18506;DHT22;9382;53.242;10.438;2023-04-03T10:49:27;11.70;99.90
18506;DHT22;9382;53.242;10.438;2023-04-03T10:52:04;11.40;99.90
18506;DHT22;9382;53.242;10.438;2023-04-03T10:54:35;10.80;99.90
18506;DHT22;9382;53.242;10.438;2023-04-03T10:57:05;10.50;99.90
18506;DHT22;9382;53.242;10.438;2023-04-03T10:59:37;10.40;99.90
18506;DHT22;9382;53.242;10.438;2023-04-03T11:02:14;10.00;99.90
18506;DHT22;9382;53.242;10.438;2023-04-03T11:04:48;9.90;99.90
18506;DHT22;9382;53.242;10.438;2023-04-03T11:07:20;9.80;99.90
18506;DHT22;9382;53.242;10.438;2023-04-03T11:09:50;9.70;99.90
18506;DHT22;9382;53.242;10.438;2023-04-03T11:12:23;9.70;99.90
18506;DHT22;9382;53.242;10.438;2023-04-03T11:14:52;9.80;99.90
18506;DHT22;9382;53.242;10.438;2023-04-03T11:17:28;10.40;99.90
18506;DHT22;9382;53.242;10.438;2023-04-03T11:20:00;11.20;99.90
18506;DHT22;9382;53.242;10.438;2023-04-03T11:22:30;12.10;99.90
18506;DHT22;9382;53.242;10.438;2023-04-03T11:25:03;13.00;99.90
18506;DHT22;9382;53.242;10.438;2023-04-03T11:27:37;13.00;99.90
18506;DHT22;9382;53.242;10.438;2023-04-03T11:30:07;12.50;99.90
18506;DHT22;9382;53.242;10.438;2023-04-03T11:33:02;11.80;99.90
18506;DHT22;9382;53.242;10.438;2023-04-03T11:35:32;11.70;99.90
18506;DHT22;9382;53.242;10.438;2023-04-03T11:38:01;12.10;99.90
18506;DHT22;9382;53.242;10.438;2023-04-03T11:40:32;11.80;99.90
18506;DHT22;9382;53.242;10.438;2023-04-03T11:43:07;11.40;99.90
18506;DHT22;9382;53.242;10.438;2023-04-03T11:45:40;10.90;99.90
18506;DHT22;9382;53.242;10.438;2023-04-03T11:48:50;10.40;99.90
18506;DHT22;9382;53.242;10.438;2023-04-03T11:51:51;10.00;99.90
18506;DHT22;9382;53.242;10.438;2023-04-03T11:54:42;10.20;99.90
18506;DHT22;9382;53.242;10.438;2023-04-03T11:57:44;11.50;99.90
18506;DHT22;9382;53.242;10.438;2023-04-03T12:03:58;12.80;99.90
18506;DHT22;9382;53.242;10.438;2023-04-03T12:06:54;11.80;99.90
18506;DHT22;9382;53.242;10.438;2023-04-03T12:09:35;11.10;99.90
18506;DHT22;9382;53.242;10.438;2023-04-03T12:12:29;11.60;99.90
18506;DHT22;9382;53.242;10.438;2023-04-03T12:15:25;12.60;99.90
18506;DHT22;9382;53.242;10.438;2023-04-03T12:17:52;12.70;99.90
18506;DHT22;9382;53.242;10.438;2023-04-03T12:20:53;12.10;99.90
18506;DHT22;9382;53.242;10.438;2023-04-03T12:23:25;11.60;99.90
18506;DHT22;9382;53.242;10.438;2023-04-03T12:25:59;13.00;99.90
18506;DHT22;9382;53.242;10.438;2023-04-03T12:28:28;14.10;99.90
18506;DHT22;9382;53.242;10.438;2023-04-03T12:30:56;14.90;99.90
18506;DHT22;9382;53.242;10.438;2023-04-03T12:33:36;15.10;99.90
18506;DHT22;9382;53.242;10.438;2023-04-03T12:36:09;14.30;99.90
18506;DHT22;9382;53.242;10.438;2023-04-03T12:39:03;13.40;99.90
18506;DHT22;9382;53.242;10.438;2023-04-03T12:41:37;12.50;99.90
18506;DHT22;9382;53.242;10.438;2023-04-03T12:44:18;11.60;99.90
18506;DHT22;9382;53.242;10.438;2023-04-03T12:46:51;10.90;99.90
18506;DHT22;9382;53.242;10.438;2023-04-03T12:49:32;10.80;99.90
18506;DHT22;9382;53.242;10.438;2023-04-03T12:52:03;12.60;99.90
18506;DHT22;9382;53.242;10.438;2023-04-03T12:54:35;12.80;99.90
18506;DHT22;9382;53.242;10.438;2023-04-03T12:57:12;12.30;99.90
18506;DHT22;9382;53.242;10.438;2023-04-03T12:59:39;12.10;99.90
18506;DHT22;9382;53.242;10.438;2023-04-03T13:02:25;11.90;99.90
18506;DHT22;9382;53.242;10.438;2023-04-03T13:04:54;11.50;99.90
18506;DHT22;9382;53.242;10.438;2023-04-03T13:07:27;11.20;99.90
18506;DHT22;9382;53.242;10.438;2023-04-03T13:10:02;11.50;99.90
18506;DHT22;9382;53.242;10.438;2023-04-03T13:12:29;13.20;99.90
18506;DHT22;9382;53.242;10.438;2023-04-03T13:14:59;15.40;99.90
18506;DHT22;9382;53.242;10.438;2023-04-03T13:17:27;17.20;98.40
18506;DHT22;9382;53.242;10.438;2023-04-03T13:19:54;16.60;94.00
18506;DHT22;9382;53.242;10.438;2023-04-03T13:22:29;16.10;96.60
18506;DHT22;9382;53.242;10.438;2023-04-03T13:25:02;16.00;94.60
18506;DHT22;9382;53.242;10.438;2023-04-03T13:27:32;16.00;94.70
18506;DHT22;9382;53.242;10.438;2023-04-03T13:30:00;14.70;97.80
18506;DHT22;9382;53.242;10.438;2023-04-03T13:32:29;13.70;96.30
18506;DHT22;9382;53.242;10.438;2023-04-03T13:34:58;12.70;98.90
18506;DHT22;9382;53.242;10.438;2023-04-03T13:37:30;12.60;98.40
18506;DHT22;9382;53.242;10.438;2023-04-03T13:40:00;13.30;98.00
18506;DHT22;9382;53.242;10.438;2023-04-03T13:42:29;15.00;97.10
18506;DHT22;9382;53.242;10.438;2023-04-03T13:45:11;16.80;96.60
18506;DHT22;9382;53.242;10.438;2023-04-03T13:47:43;18.70;94.80
18506;DHT22;9382;53.242;10.438;2023-04-03T13:50:16;20.10;90.10
18506;DHT22;9382;53.242;10.438;2023-04-03T13:52:47;20.90;88.30
18506;DHT22;9382;53.242;10.438;2023-04-03T13:55:21;21.60;81.20
18506;DHT22;9382;53.242;10.438;2023-04-03T13:57:51;21.60;78.90
18506;DHT22;9382;53.242;10.438;2023-04-03T14:00:28;21.40;72.60
18506;DHT22;9382;53.242;10.438;2023-04-03T14:02:55;21.40;77.40
18506;DHT22;9382;53.242;10.438;2023-04-03T14:05:23;21.60;80.70
18506;DHT22;9382;53.242;10.438;2023-04-03T14:07:54;20.90;80.60
18506;DHT22;9382;53.242;10.438;2023-04-03T14:10:21;21.70;74.10
18506;DHT22;9382;53.242;10.438;2023-04-03T14:12:48;22.20;72.10
18506;DHT22;9382;53.242;10.438;2023-04-03T14:15:19;22.20;76.00
18506;DHT22;9382;53.242;10.438;2023-04-03T14:17:46;21.80;75.20
18506;DHT22;9382;53.242;10.438;2023-04-03T14:20:15;20.20;74.10
18506;DHT22;9382;53.242;10.438;2023-04-03T14:22:43;20.70;72.40
18506;DHT22;9382;53.242;10.438;2023-04-03T14:25:11;21.30;73.10
18506;DHT22;9382;53.242;10.438;2023-04-03T14:27:39;21.60;67.40
18506;DHT22;9382;53.242;10.438;2023-04-03T14:30:09;22.30;65.30
18506;DHT22;9382;53.242;10.438;2023-04-03T14:32:38;22.70;72.40
18506;DHT22;9382;53.242;10.438;2023-04-03T14:35:06;23.80;68.80
18506;DHT22;9382;53.242;10.438;2023-04-03T14:37:33;24.10;63.20
18506;DHT22;9382;53.242;10.438;2023-04-03T14:40:02;23.60;64.40
18506;DHT22;9382;53.242;10.438;2023-04-03T14:42:33;23.90;65.40
18506;DHT22;9382;53.242;10.438;2023-04-03T14:45:01;24.70;66.00
18506;DHT22;9382;53.242;10.438;2023-04-03T14:47:30;24.70;61.60
18506;DHT22;9382;53.242;10.438;2023-04-03T14:49:57;24.70;58.60
18506;DHT22;9382;53.242;10.438;2023-04-03T14:52:26;24.50;57.60
18506;DHT22;9382;53.242;10.438;2023-04-03T14:54:54;24.20;59.00
18506;DHT22;9382;53.242;10.438;2023-04-03T14:57:22;23.90;59.20
18506;DHT22;9382;53.242;10.438;2023-04-03T14:59:52;23.90;58.80
18506;DHT22;9382;53.242;10.438;2023-04-03T15:02:28;24.40;57.40
18506;DHT22;9382;53.242;10.438;2023-04-03T15:04:56;24.10;60.80
18506;DHT22;9382;53.242;10.438;2023-04-03T15:07:24;24.60;58.20
18506;DHT22;9382;53.242;10.438;2023-04-03T15:09:52;24.10;55.80
18506;DHT22;9382;53.242;10.438;2023-04-03T15:12:21;23.10;56.70
18506;DHT22;9382;53.242;10.438;2023-04-03T15:14:48;23.00;58.60
18506;DHT22;9382;53.242;10.438;2023-04-03T15:17:19;23.30;59.80
18506;DHT22;9382;53.242;10.438;2023-04-03T15:19:47;23.60;58.40
18506;DHT22;9382;53.242;10.438;2023-04-03T15:22:15;23.90;57.50
18506;DHT22;9382;53.242;10.438;2023-04-03T15:24:43;23.70;56.20
18506;DHT22;9382;53.242;10.438;2023-04-03T15:27:10;23.60;57.00
18506;DHT22;9382;53.242;10.438;2023-04-03T15:29:38;22.50;57.60
18506;DHT22;9382;53.242;10.438;2023-04-03T15:32:05;22.60;59.40
18506;DHT22;9382;53.242;10.438;2023-04-03T15:34:33;23.70;59.20
18506;DHT22;9382;53.242;10.438;2023-04-03T15:37:01;24.50;55.10
18506;DHT22;9382;53.242;10.438;2023-04-03T15:39:28;23.90;54.50
18506;DHT22;9382;53.242;10.438;2023-04-03T15:41:54;23.80;55.30
18506;DHT22;9382;53.242;10.438;2023-04-03T15:44:25;24.10;57.50
18506;DHT22;9382;53.242;10.438;2023-04-03T15:46:52;24.60;56.50
18506;DHT22;9382;53.242;10.438;2023-04-03T15:49:19;25.10;52.70
18506;DHT22;9382;53.242;10.438;2023-04-03T15:51:49;24.60;54.20
18506;DHT22;9382;53.242;10.438;2023-04-03T15:54:16;24.40;52.90
18506;DHT22;9382;53.242;10.438;2023-04-03T15:56:43;24.10;52.80
18506;DHT22;9382;53.242;10.438;2023-04-03T15:59:10;24.00;53.70
18506;DHT22;9382;53.242;10.438;2023-04-03T16:01:38;23.80;54.00